sensor_id;sensor_type;location;lat;lon;timestamp;temperature;humidity
11454;DHT22;5783;55.174;61.310;2022-09-02T00:02:28;27.00;47.40
11454;DHT22;5783;55.174;61.310;2022-09-02T00:04:56;27.00;47.40
11454;DHT22;5783;55.174;61.310;2022-09-02T00:07:24;27.00;47.60
11454;DHT22;5783;55.174;61.310;2022-09-02T00:09:52;27.00;47.90
11454;DHT22;5783;55.174;61.310;2022-09-02T00:12:22;27.00;47.80
11454;DHT22;5783;55.174;61.310;2022-09-02T00:14:50;27.00;47.60
11454;DHT22;5783;55.174;61.310;2022-09-02T00:17:18;27.00;47.70
11454;DHT22;5783;55.174;61.310;2022-09-02T00:19:47;27.00;47.80
11454;DHT22;5783;55.174;61.310;2022-09-02T00:22:15;26.90;47.20
11454;DHT22;5783;55.174;61.310;2022-09-02T00:27:12;27.00;47.40
11454;DHT22;5783;55.174;61.310;2022-09-02T00:29:40;26.90;48.00
11454;DHT22;5783;55.174;61.310;2022-09-02T00:32:08;26.90;47.90
11454;DHT22;5783;55.174;61.310;2022-09-02T00:34:36;26.90;48.10
11454;DHT22;5783;55.174;61.310;2022-09-02T00:37:05;26.90;48.20
11454;DHT22;5783;55.174;61.310;2022-09-02T00:39:33;26.90;48.80
11454;DHT22;5783;55.174;61.310;2022-09-02T00:42:02;26.90;49.00
11454;DHT22;5783;55.174;61.310;2022-09-02T00:44:32;26.90;48.80
11454;DHT22;5783;55.174;61.310;2022-09-02T00:47:01;26.80;48.80
11454;DHT22;5783;55.174;61.310;2022-09-02T00:49:30;26.80;48.90
11454;DHT22;5783;55.174;61.310;2022-09-02T00:52:02;26.90;49.00
11454;DHT22;5783;55.174;61.310;2022-09-02T00:54:30;26.80;49.00
11454;DHT22;5783;55.174;61.310;2022-09-02T00:56:59;26.80;48.80
11454;DHT22;5783;55.174;61.310;2022-09-02T01:02:16;26.80;49.20
11454;DHT22;5783;55.174;61.310;2022-09-02T01:04:46;26.80;49.60
11454;DHT22;5783;55.174;61.310;2022-09-02T01:07:14;26.70;49.60
11454;DHT22;5783;55.174;61.310;2022-09-02T01:09:42;26.70;49.80
11454;DHT22;5783;55.174;61.310;2022-09-02T01:12:11;26.80;50.00
11454;DHT22;5783;55.174;61.310;2022-09-02T01:14:39;26.80;50.10
11454;DHT22;5783;55.174;61.310;2022-09-02T01:17:08;26.80;50.10
11454;DHT22;5783;55.174;61.310;2022-09-02T01:19:38;26.80;50.20
11454;DHT22;5783;55.174;61.310;2022-09-02T01:22:37;26.80;50.20
11454;DHT22;5783;55.174;61.310;2022-09-02T01:24:36;26.80;50.20
11454;DHT22;5783;55.174;61.310;2022-09-02T01:27:04;26.80;50.10
11454;DHT22;5783;55.174;61.310;2022-09-02T01:29:32;26.80;50.10
11454;DHT22;5783;55.174;61.310;2022-09-02T01:32:01;26.90;50.30
11454;DHT22;5783;55.174;61.310;2022-09-02T01:34:29;26.90;50.40
11454;DHT22;5783;55.174;61.310;2022-09-02T01:36:57;26.90;50.30
11454;DHT22;5783;55.174;61.310;2022-09-02T01:39:25;26.90;50.40
11454;DHT22;5783;55.174;61.310;2022-09-02T01:41:54;26.90;50.70
11454;DHT22;5783;55.174;61.310;2022-09-02T01:44:22;26.80;50.80
11454;DHT22;5783;55.174;61.310;2022-09-02T01:46:52;26.80;50.70
11454;DHT22;5783;55.174;61.310;2022-09-02T01:49:21;26.80;50.80
11454;DHT22;5783;55.174;61.310;2022-09-02T01:51:52;26.80;51.00
11454;DHT22;5783;55.174;61.310;2022-09-02T01:54:19;26.80;51.10
11454;DHT22;5783;55.174;61.310;2022-09-02T01:56:47;26.80;51.20
11454;DHT22;5783;55.174;61.310;2022-09-02T01:59:15;26.80;51.30
11454;DHT22;5783;55.174;61.310;2022-09-02T02:01:45;26.80;51.30
11454;DHT22;5783;55.174;61.310;2022-09-02T02:04:14;26.80;51.30
11454;DHT22;5783;55.174;61.310;2022-09-02T02:06:43;26.70;51.20
11454;DHT22;5783;55.174;61.310;2022-09-02T02:09:13;26.70;51.30
11454;DHT22;5783;55.174;61.310;2022-09-02T02:12:01;26.80;51.70
11454;DHT22;5783;55.174;61.310;2022-09-02T02:14:29;26.70;51.80
11454;DHT22;5783;55.174;61.310;2022-09-02T02:16:58;26.70;51.70
11454;DHT22;5783;55.174;61.310;2022-09-02T02:19:26;26.70;51.80
11454;DHT22;5783;55.174;61.310;2022-09-02T02:21:54;26.70;51.70
11454;DHT22;5783;55.174;61.310;2022-09-02T02:24:23;26.70;51.70
11454;DHT22;5783;55.174;61.310;2022-09-02T02:26:51;26.80;51.70
11454;DHT22;5783;55.174;61.310;2022-09-02T02:29:21;26.80;51.50
11454;DHT22;5783;55.174;61.310;2022-09-02T02:31:50;26.80;51.50
11454;DHT22;5783;55.174;61.310;2022-09-02T02:34:18;26.80;51.50
11454;DHT22;5783;55.174;61.310;2022-09-02T02:36:47;26.90;51.80
11454;DHT22;5783;55.174;61.310;2022-09-02T02:39:15;26.90;51.50
11454;DHT22;5783;55.174;61.310;2022-09-02T02:41:43;26.80;51.40
11454;DHT22;5783;55.174;61.310;2022-09-02T02:44:12;26.80;51.30
11454;DHT22;5783;55.174;61.310;2022-09-02T02:46:40;26.80;51.50
11454;DHT22;5783;55.174;61.310;2022-09-02T02:49:09;26.70;51.70
11454;DHT22;5783;55.174;61.310;2022-09-02T02:51:37;26.80;51.60
11454;DHT22;5783;55.174;61.310;2022-09-02T02:54:05;26.70;51.60
11454;DHT22;5783;55.174;61.310;2022-09-02T02:56:35;26.70;51.60
11454;DHT22;5783;55.174;61.310;2022-09-02T02:59:04;26.70;51.50
11454;DHT22;5783;55.174;61.310;2022-09-02T03:01:32;26.70;51.50
11454;DHT22;5783;55.174;61.310;2022-09-02T03:04:01;26.70;51.70
11454;DHT22;5783;55.174;61.310;2022-09-02T03:06:29;26.60;51.80
11454;DHT22;5783;55.174;61.310;2022-09-02T03:08:58;26.60;51.40
11454;DHT22;5783;55.174;61.310;2022-09-02T03:11:26;26.60;51.70
11454;DHT22;5783;55.174;61.310;2022-09-02T03:13:55;26.60;51.90
11454;DHT22;5783;55.174;61.310;2022-09-02T03:16:24;26.50;51.90
11454;DHT22;5783;55.174;61.310;2022-09-02T03:18:52;26.50;52.00
11454;DHT22;5783;55.174;61.310;2022-09-02T03:21:21;26.50;51.90
11454;DHT22;5783;55.174;61.310;2022-09-02T03:23:49;26.50;51.70
11454;DHT22;5783;55.174;61.310;2022-09-02T03:26:20;26.50;51.70
11454;DHT22;5783;55.174;61.310;2022-09-02T03:28:47;26.50;51.70
11454;DHT22;5783;55.174;61.310;2022-09-02T03:31:18;26.50;51.60
11454;DHT22;5783;55.174;61.310;2022-09-02T03:33:46;26.60;51.70
11454;DHT22;5783;55.174;61.310;2022-09-02T03:39:08;26.60;51.80
11454;DHT22;5783;55.174;61.310;2022-09-02T03:41:34;26.60;52.20
11454;DHT22;5783;55.174;61.310;2022-09-02T03:44:02;26.60;52.20
11454;DHT22;5783;55.174;61.310;2022-09-02T03:46:31;26.50;52.30
11454;DHT22;5783;55.174;61.310;2022-09-02T03:49:00;26.60;52.40
11454;DHT22;5783;55.174;61.310;2022-09-02T03:51:28;26.50;52.40
11454;DHT22;5783;55.174;61.310;2022-09-02T03:53:56;26.50;52.40
11454;DHT22;5783;55.174;61.310;2022-09-02T03:56:24;26.50;52.50
11454;DHT22;5783;55.174;61.310;2022-09-02T03:58:53;26.50;52.40
11454;DHT22;5783;55.174;61.310;2022-09-02T04:01:21;26.50;52.20
11454;DHT22;5783;55.174;61.310;2022-09-02T04:03:50;26.50;52.20
11454;DHT22;5783;55.174;61.310;2022-09-02T04:06:20;26.50;52.20
11454;DHT22;5783;55.174;61.310;2022-09-02T04:08:50;26.50;52.40
11454;DHT22;5783;55.174;61.310;2022-09-02T04:11:19;26.50;51.90
11454;DHT22;5783;55.174;61.310;2022-09-02T04:13:49;26.60;52.20
11454;DHT22;5783;55.174;61.310;2022-09-02T04:16:19;26.60;52.10
11454;DHT22;5783;55.174;61.310;2022-09-02T04:18:49;26.70;51.90
11454;DHT22;5783;55.174;61.310;2022-09-02T04:21:17;26.70;52.10
11454;DHT22;5783;55.174;61.310;2022-09-02T04:23:46;26.70;51.90
11454;DHT22;5783;55.174;61.310;2022-09-02T04:26:15;26.70;51.70
11454;DHT22;5783;55.174;61.310;2022-09-02T04:28:43;26.80;51.80
11454;DHT22;5783;55.174;61.310;2022-09-02T04:31:12;26.80;51.50
11454;DHT22;5783;55.174;61.310;2022-09-02T04:33:41;26.80;51.20
11454;DHT22;5783;55.174;61.310;2022-09-02T04:36:10;26.80;50.60
11454;DHT22;5783;55.174;61.310;2022-09-02T04:38:39;26.80;50.20
11454;DHT22;5783;55.174;61.310;2022-09-02T04:41:07;26.80;50.10
11454;DHT22;5783;55.174;61.310;2022-09-02T04:43:36;26.80;50.20
11454;DHT22;5783;55.174;61.310;2022-09-02T04:46:06;26.80;50.20
11454;DHT22;5783;55.174;61.310;2022-09-02T04:48:35;26.80;50.00
11454;DHT22;5783;55.174;61.310;2022-09-02T04:53:51;26.80;49.90
11454;DHT22;5783;55.174;61.310;2022-09-02T04:56:22;26.80;49.30
11454;DHT22;5783;55.174;61.310;2022-09-02T04:58:50;26.90;49.20
11454;DHT22;5783;55.174;61.310;2022-09-02T05:01:20;26.90;49.10
11454;DHT22;5783;55.174;61.310;2022-09-02T05:03:49;26.90;49.30
11454;DHT22;5783;55.174;61.310;2022-09-02T05:06:19;26.90;50.00
11454;DHT22;5783;55.174;61.310;2022-09-02T05:08:48;27.00;49.80
11454;DHT22;5783;55.174;61.310;2022-09-02T05:11:18;27.00;49.60
11454;DHT22;5783;55.174;61.310;2022-09-02T05:13:46;27.00;49.60
11454;DHT22;5783;55.174;61.310;2022-09-02T05:16:17;27.00;49.30
11454;DHT22;5783;55.174;61.310;2022-09-02T05:18:45;27.00;49.50
11454;DHT22;5783;55.174;61.310;2022-09-02T05:21:14;27.10;49.40
11454;DHT22;5783;55.174;61.310;2022-09-02T05:23:42;27.10;49.20
11454;DHT22;5783;55.174;61.310;2022-09-02T05:26:11;27.10;49.10
11454;DHT22;5783;55.174;61.310;2022-09-02T05:28:40;27.10;48.90
11454;DHT22;5783;55.174;61.310;2022-09-02T05:31:09;27.20;49.00
11454;DHT22;5783;55.174;61.310;2022-09-02T05:33:38;27.20;48.80
11454;DHT22;5783;55.174;61.310;2022-09-02T05:36:08;27.20;48.80
11454;DHT22;5783;55.174;61.310;2022-09-02T05:41:08;27.20;48.60
11454;DHT22;5783;55.174;61.310;2022-09-02T05:43:36;27.30;48.20
11454;DHT22;5783;55.174;61.310;2022-09-02T05:46:05;27.30;48.10
11454;DHT22;5783;55.174;61.310;2022-09-02T05:48:35;27.30;49.30
11454;DHT22;5783;55.174;61.310;2022-09-02T05:51:23;27.30;47.50
11454;DHT22;5783;55.174;61.310;2022-09-02T05:53:52;27.30;47.60
11454;DHT22;5783;55.174;61.310;2022-09-02T05:56:20;27.30;47.90
11454;DHT22;5783;55.174;61.310;2022-09-02T06:01:18;27.40;46.90
11454;DHT22;5783;55.174;61.310;2022-09-02T06:03:46;27.40;47.20
11454;DHT22;5783;55.174;61.310;2022-09-02T06:06:16;27.40;47.50
11454;DHT22;5783;55.174;61.310;2022-09-02T06:08:44;27.40;47.10
11454;DHT22;5783;55.174;61.310;2022-09-02T06:11:13;27.40;47.20
11454;DHT22;5783;55.174;61.310;2022-09-02T06:13:42;27.40;47.00
11454;DHT22;5783;55.174;61.310;2022-09-02T06:18:59;27.40;47.10
11454;DHT22;5783;55.174;61.310;2022-09-02T06:21:29;27.40;46.60
11454;DHT22;5783;55.174;61.310;2022-09-02T06:23:57;27.40;46.50
11454;DHT22;5783;55.174;61.310;2022-09-02T06:26:25;27.40;46.70
11454;DHT22;5783;55.174;61.310;2022-09-02T06:28:53;27.40;47.00
11454;DHT22;5783;55.174;61.310;2022-09-02T06:31:22;27.50;46.70
11454;DHT22;5783;55.174;61.310;2022-09-02T06:33:51;27.50;46.70
11454;DHT22;5783;55.174;61.310;2022-09-02T06:36:20;27.50;46.20
11454;DHT22;5783;55.174;61.310;2022-09-02T06:38:49;27.50;46.40
11454;DHT22;5783;55.174;61.310;2022-09-02T06:41:20;27.50;46.50
11454;DHT22;5783;55.174;61.310;2022-09-02T06:43:49;27.50;46.80
11454;DHT22;5783;55.174;61.310;2022-09-02T06:49:05;27.60;46.90
11454;DHT22;5783;55.174;61.310;2022-09-02T06:54:22;27.60;45.70
11454;DHT22;5783;55.174;61.310;2022-09-02T06:56:51;27.60;45.90
11454;DHT22;5783;55.174;61.310;2022-09-02T06:59:20;27.60;45.80
11454;DHT22;5783;55.174;61.310;2022-09-02T07:01:48;27.60;45.60
11454;DHT22;5783;55.174;61.310;2022-09-02T07:04:16;27.60;45.80
11454;DHT22;5783;55.174;61.310;2022-09-02T07:07:06;27.70;45.00
11454;DHT22;5783;55.174;61.310;2022-09-02T07:09:37;27.60;45.50
11454;DHT22;5783;55.174;61.310;2022-09-02T07:12:06;27.70;45.70
11454;DHT22;5783;55.174;61.310;2022-09-02T07:17:22;27.60;45.60
11454;DHT22;5783;55.174;61.310;2022-09-02T07:19:52;27.70;46.30
11454;DHT22;5783;55.174;61.310;2022-09-02T07:22:22;27.70;45.90
11454;DHT22;5783;55.174;61.310;2022-09-02T07:24:50;27.70;46.90
11454;DHT22;5783;55.174;61.310;2022-09-02T07:27:18;27.70;46.80
11454;DHT22;5783;55.174;61.310;2022-09-02T07:29:47;27.80;46.80
11454;DHT22;5783;55.174;61.310;2022-09-02T07:32:15;27.80;47.30
11454;DHT22;5783;55.174;61.310;2022-09-02T07:34:44;27.80;47.40
11454;DHT22;5783;55.174;61.310;2022-09-02T07:37:12;27.80;47.60
11454;DHT22;5783;55.174;61.310;2022-09-02T07:39:40;27.90;46.70
11454;DHT22;5783;55.174;61.310;2022-09-02T07:42:10;27.90;46.70
11454;DHT22;5783;55.174;61.310;2022-09-02T07:44:39;27.90;47.20
11454;DHT22;5783;55.174;61.310;2022-09-02T07:47:07;27.90;46.90
11454;DHT22;5783;55.174;61.310;2022-09-02T07:49:35;27.90;47.00
11454;DHT22;5783;55.174;61.310;2022-09-02T07:52:04;27.90;46.40
11454;DHT22;5783;55.174;61.310;2022-09-02T07:54:32;28.00;46.40
11454;DHT22;5783;55.174;61.310;2022-09-02T07:57:00;28.00;46.30
11454;DHT22;5783;55.174;61.310;2022-09-02T07:59:28;28.00;45.30
11454;DHT22;5783;55.174;61.310;2022-09-02T08:01:57;28.10;44.30
11454;DHT22;5783;55.174;61.310;2022-09-02T08:04:58;28.10;44.00
11454;DHT22;5783;55.174;61.310;2022-09-02T08:06:55;28.20;43.90
11454;DHT22;5783;55.174;61.310;2022-09-02T08:09:24;28.20;43.50
11454;DHT22;5783;55.174;61.310;2022-09-02T08:11:52;28.30;43.00
11454;DHT22;5783;55.174;61.310;2022-09-02T08:14:22;28.30;42.90
11454;DHT22;5783;55.174;61.310;2022-09-02T08:16:52;28.40;41.50
11454;DHT22;5783;55.174;61.310;2022-09-02T08:19:21;28.40;45.10
11454;DHT22;5783;55.174;61.310;2022-09-02T08:21:51;28.50;41.20
11454;DHT22;5783;55.174;61.310;2022-09-02T08:24:20;28.50;38.20
11454;DHT22;5783;55.174;61.310;2022-09-02T08:26:48;28.60;37.40
11454;DHT22;5783;55.174;61.310;2022-09-02T08:29:16;28.70;37.20
11454;DHT22;5783;55.174;61.310;2022-09-02T08:31:45;28.70;36.70
11454;DHT22;5783;55.174;61.310;2022-09-02T08:34:14;28.80;36.50
11454;DHT22;5783;55.174;61.310;2022-09-02T08:36:42;28.80;35.60
11454;DHT22;5783;55.174;61.310;2022-09-02T08:39:11;28.80;35.20
11454;DHT22;5783;55.174;61.310;2022-09-02T08:44:50;28.90;35.90
11454;DHT22;5783;55.174;61.310;2022-09-02T08:47:21;28.90;36.50
11454;DHT22;5783;55.174;61.310;2022-09-02T08:49:53;28.90;40.40
11454;DHT22;5783;55.174;61.310;2022-09-02T08:58:00;27.90;63.60
11454;DHT22;5783;55.174;61.310;2022-09-02T09:00:32;27.10;38.50
11454;DHT22;5783;55.174;61.310;2022-09-02T09:15:08;25.70;38.80
11454;DHT22;5783;55.174;61.310;2022-09-02T09:17:26;25.50;42.40
11454;DHT22;5783;55.174;61.310;2022-09-02T09:19:58;25.40;38.40
11454;DHT22;5783;55.174;61.310;2022-09-02T09:22:30;25.30;38.00
11454;DHT22;5783;55.174;61.310;2022-09-02T09:28:50;25.10;38.40
11454;DHT22;5783;55.174;61.310;2022-09-02T09:31:25;25.00;37.90
11454;DHT22;5783;55.174;61.310;2022-09-02T09:33:57;25.00;37.40
11454;DHT22;5783;55.174;61.310;2022-09-02T09:36:48;24.90;37.20
11454;DHT22;5783;55.174;61.310;2022-09-02T09:39:39;24.90;36.90
11454;DHT22;5783;55.174;61.310;2022-09-02T09:44:58;24.70;36.80
11454;DHT22;5783;55.174;61.310;2022-09-02T09:47:27;24.70;36.40
11454;DHT22;5783;55.174;61.310;2022-09-02T09:50:16;24.70;36.70
11454;DHT22;5783;55.174;61.310;2022-09-02T09:52:45;24.70;37.40
11454;DHT22;5783;55.174;61.310;2022-09-02T09:55:17;24.70;37.20
11454;DHT22;5783;55.174;61.310;2022-09-02T09:57:48;24.60;37.00
11454;DHT22;5783;55.174;61.310;2022-09-02T10:00:38;24.60;39.10
11454;DHT22;5783;55.174;61.310;2022-09-02T10:03:08;24.50;40.60
11454;DHT22;5783;55.174;61.310;2022-09-02T10:05:39;24.50;37.40
11454;DHT22;5783;55.174;61.310;2022-09-02T10:08:29;24.50;37.70
11454;DHT22;5783;55.174;61.310;2022-09-02T10:14:08;24.40;37.70
11454;DHT22;5783;55.174;61.310;2022-09-02T10:59:13;24.20;38.10
11454;DHT22;5783;55.174;61.310;2022-09-02T11:04:55;24.10;39.90
11454;DHT22;5783;55.174;61.310;2022-09-02T11:31:49;24.20;37.30
11454;DHT22;5783;55.174;61.310;2022-09-02T12:04:19;25.30;37.00
11454;DHT22;5783;55.174;61.310;2022-09-02T12:10:01;26.10;33.50
11454;DHT22;5783;55.174;61.310;2022-09-02T12:15:41;26.50;35.20
11454;DHT22;5783;55.174;61.310;2022-09-02T12:21:05;27.00;31.90
11454;DHT22;5783;55.174;61.310;2022-09-02T12:32:04;27.40;30.90
11454;DHT22;5783;55.174;61.310;2022-09-02T12:37:02;27.50;31.00
11454;DHT22;5783;55.174;61.310;2022-09-02T12:56:05;27.90;30.40
11454;DHT22;5783;55.174;61.310;2022-09-02T12:58:37;27.90;30.50
11454;DHT22;5783;55.174;61.310;2022-09-02T13:20:31;28.30;48.50
11454;DHT22;5783;55.174;61.310;2022-09-02T13:25:28;28.40;31.00
11454;DHT22;5783;55.174;61.310;2022-09-02T13:30:30;28.50;32.10
11454;DHT22;5783;55.174;61.310;2022-09-02T13:32:56;28.50;32.50
11454;DHT22;5783;55.174;61.310;2022-09-02T13:35:25;28.50;32.70
11454;DHT22;5783;55.174;61.310;2022-09-02T13:38:29;28.50;33.40
11454;DHT22;5783;55.174;61.310;2022-09-02T13:40:58;28.50;35.90
11454;DHT22;5783;55.174;61.310;2022-09-02T13:42:58;28.50;34.20
11454;DHT22;5783;55.174;61.310;2022-09-02T13:45:27;28.50;34.30
11454;DHT22;5783;55.174;61.310;2022-09-02T13:47:58;28.50;34.40
11454;DHT22;5783;55.174;61.310;2022-09-02T13:50:28;28.50;35.00
11454;DHT22;5783;55.174;61.310;2022-09-02T13:58:33;28.40;35.30
11454;DHT22;5783;55.174;61.310;2022-09-02T14:06:37;28.40;35.90
11454;DHT22;5783;55.174;61.310;2022-09-02T14:09:07;28.40;36.00
11454;DHT22;5783;55.174;61.310;2022-09-02T14:14:24;28.40;36.40
11454;DHT22;5783;55.174;61.310;2022-09-02T14:17:28;28.40;36.50
11454;DHT22;5783;55.174;61.310;2022-09-02T14:19:24;28.40;36.60
11454;DHT22;5783;55.174;61.310;2022-09-02T14:21:53;28.40;36.90
11454;DHT22;5783;55.174;61.310;2022-09-02T14:27:15;28.30;36.90
11454;DHT22;5783;55.174;61.310;2022-09-02T14:29:42;28.30;37.50
11454;DHT22;5783;55.174;61.310;2022-09-02T14:41:09;28.30;37.80
11454;DHT22;5783;55.174;61.310;2022-09-02T14:43:03;28.30;37.80
11454;DHT22;5783;55.174;61.310;2022-09-02T14:45:33;28.30;38.80
11454;DHT22;5783;55.174;61.310;2022-09-02T14:48:09;28.30;38.50
11454;DHT22;5783;55.174;61.310;2022-09-02T14:50:31;28.30;38.70
11454;DHT22;5783;55.174;61.310;2022-09-02T14:55:50;28.30;38.70
11454;DHT22;5783;55.174;61.310;2022-09-02T14:58:19;28.30;38.70
11454;DHT22;5783;55.174;61.310;2022-09-02T15:03:37;28.20;39.40
11454;DHT22;5783;55.174;61.310;2022-09-02T15:06:05;28.20;39.80
11454;DHT22;5783;55.174;61.310;2022-09-02T15:08:33;28.20;40.10
11454;DHT22;5783;55.174;61.310;2022-09-02T15:11:02;28.10;40.30
11454;DHT22;5783;55.174;61.310;2022-09-02T15:13:31;28.10;42.70
11454;DHT22;5783;55.174;61.310;2022-09-02T15:16:00;28.10;42.50
11454;DHT22;5783;55.174;61.310;2022-09-02T15:18:28;28.00;42.50
11454;DHT22;5783;55.174;61.310;2022-09-02T15:20:56;28.00;42.30
11454;DHT22;5783;55.174;61.310;2022-09-02T15:23:25;28.00;42.30
11454;DHT22;5783;55.174;61.310;2022-09-02T15:25:53;28.00;43.20
11454;DHT22;5783;55.174;61.310;2022-09-02T15:28:22;28.00;44.10
11454;DHT22;5783;55.174;61.310;2022-09-02T15:33:39;28.00;44.70
11454;DHT22;5783;55.174;61.310;2022-09-02T15:38:38;27.90;41.90
11454;DHT22;5783;55.174;61.310;2022-09-02T15:43:56;27.90;41.90
11454;DHT22;5783;55.174;61.310;2022-09-02T15:46:26;27.90;42.10
11454;DHT22;5783;55.174;61.310;2022-09-02T15:48:54;27.90;42.30
11454;DHT22;5783;55.174;61.310;2022-09-02T15:51:23;27.90;42.60
11454;DHT22;5783;55.174;61.310;2022-09-02T15:56:40;27.90;42.60
11454;DHT22;5783;55.174;61.310;2022-09-02T15:59:10;27.80;42.50
11454;DHT22;5783;55.174;61.310;2022-09-02T16:01:41;27.80;42.80
11454;DHT22;5783;55.174;61.310;2022-09-02T16:06:41;27.80;43.30
11454;DHT22;5783;55.174;61.310;2022-09-02T16:09:10;27.80;43.10
11454;DHT22;5783;55.174;61.310;2022-09-02T16:11:41;27.80;43.10
11454;DHT22;5783;55.174;61.310;2022-09-02T16:14:10;27.80;43.00
11454;DHT22;5783;55.174;61.310;2022-09-02T16:16:39;27.80;42.90
11454;DHT22;5783;55.174;61.310;2022-09-02T16:19:08;27.80;42.90
11454;DHT22;5783;55.174;61.310;2022-09-02T16:21:36;27.80;43.10
11454;DHT22;5783;55.174;61.310;2022-09-02T16:24:06;27.80;43.10
11454;DHT22;5783;55.174;61.310;2022-09-02T16:26:37;27.80;43.20
11454;DHT22;5783;55.174;61.310;2022-09-02T16:29:07;27.80;43.20
11454;DHT22;5783;55.174;61.310;2022-09-02T16:31:36;27.80;43.20
11454;DHT22;5783;55.174;61.310;2022-09-02T16:36:52;27.80;43.40
11454;DHT22;5783;55.174;61.310;2022-09-02T16:39:21;27.80;43.50
11454;DHT22;5783;55.174;61.310;2022-09-02T16:41:50;27.70;43.50
11454;DHT22;5783;55.174;61.310;2022-09-02T16:44:20;27.70;43.60
11454;DHT22;5783;55.174;61.310;2022-09-02T16:46:49;27.80;43.70
11454;DHT22;5783;55.174;61.310;2022-09-02T16:49:18;27.80;43.70
11454;DHT22;5783;55.174;61.310;2022-09-02T16:51:48;27.70;43.90
11454;DHT22;5783;55.174;61.310;2022-09-02T16:54:16;27.70;43.80
11454;DHT22;5783;55.174;61.310;2022-09-02T16:56:45;27.70;43.30
11454;DHT22;5783;55.174;61.310;2022-09-02T16:59:17;27.70;44.00
11454;DHT22;5783;55.174;61.310;2022-09-02T17:01:45;27.70;44.10
11454;DHT22;5783;55.174;61.310;2022-09-02T17:04:14;27.70;44.10
11454;DHT22;5783;55.174;61.310;2022-09-02T17:06:42;27.70;44.20
11454;DHT22;5783;55.174;61.310;2022-09-02T17:09:10;27.60;44.30
11454;DHT22;5783;55.174;61.310;2022-09-02T17:11:38;27.60;44.30
11454;DHT22;5783;55.174;61.310;2022-09-02T17:14:08;27.60;44.40
11454;DHT22;5783;55.174;61.310;2022-09-02T17:16:38;27.60;44.40
11454;DHT22;5783;55.174;61.310;2022-09-02T17:19:06;27.50;44.30
11454;DHT22;5783;55.174;61.310;2022-09-02T17:24:06;27.50;44.30
11454;DHT22;5783;55.174;61.310;2022-09-02T17:26:35;27.50;44.40
11454;DHT22;5783;55.174;61.310;2022-09-02T17:31:54;27.50;44.70
11454;DHT22;5783;55.174;61.310;2022-09-02T17:34:22;27.50;44.90
11454;DHT22;5783;55.174;61.310;2022-09-02T17:36:51;27.50;44.90
11454;DHT22;5783;55.174;61.310;2022-09-02T17:39:20;27.50;44.80
11454;DHT22;5783;55.174;61.310;2022-09-02T17:41:48;27.50;45.00
11454;DHT22;5783;55.174;61.310;2022-09-02T17:44:36;27.50;45.00
11454;DHT22;5783;55.174;61.310;2022-09-02T17:47:06;27.50;45.00
11454;DHT22;5783;55.174;61.310;2022-09-02T17:49:35;27.50;45.20
11454;DHT22;5783;55.174;61.310;2022-09-02T17:52:06;27.50;44.70
11454;DHT22;5783;55.174;61.310;2022-09-02T17:54:35;27.50;45.30
11454;DHT22;5783;55.174;61.310;2022-09-02T17:57:39;27.50;45.40
11454;DHT22;5783;55.174;61.310;2022-09-02T17:59:39;27.50;45.40
11454;DHT22;5783;55.174;61.310;2022-09-02T18:18:39;27.40;45.90
11454;DHT22;5783;55.174;61.310;2022-09-02T18:21:10;27.40;45.50
11454;DHT22;5783;55.174;61.310;2022-09-02T18:42:41;27.30;46.00
11454;DHT22;5783;55.174;61.310;2022-09-02T18:47:57;27.30;46.10
11454;DHT22;5783;55.174;61.310;2022-09-02T18:50:28;27.30;46.40
11454;DHT22;5783;55.174;61.310;2022-09-02T18:52:58;27.30;46.50
11454;DHT22;5783;55.174;61.310;2022-09-02T19:03:34;27.30;46.60
11454;DHT22;5783;55.174;61.310;2022-09-02T19:06:03;27.30;46.70
11454;DHT22;5783;55.174;61.310;2022-09-02T19:08:33;27.30;46.70
11454;DHT22;5783;55.174;61.310;2022-09-02T19:13:53;27.30;46.70
11454;DHT22;5783;55.174;61.310;2022-09-02T19:16:23;27.30;46.80
11454;DHT22;5783;55.174;61.310;2022-09-02T19:18:51;27.30;46.90
11454;DHT22;5783;55.174;61.310;2022-09-02T19:23:50;27.30;46.80
11454;DHT22;5783;55.174;61.310;2022-09-02T19:26:18;27.30;46.80
11454;DHT22;5783;55.174;61.310;2022-09-02T19:28:46;27.30;46.80
11454;DHT22;5783;55.174;61.310;2022-09-02T19:34:03;27.30;47.00
11454;DHT22;5783;55.174;61.310;2022-09-02T19:36:33;27.30;47.20
11454;DHT22;5783;55.174;61.310;2022-09-02T19:39:05;27.30;47.20
11454;DHT22;5783;55.174;61.310;2022-09-02T19:41:33;27.30;47.20
11454;DHT22;5783;55.174;61.310;2022-09-02T19:44:01;27.30;47.20
11454;DHT22;5783;55.174;61.310;2022-09-02T19:46:29;27.30;47.30
11454;DHT22;5783;55.174;61.310;2022-09-02T19:48:58;27.30;47.30
11454;DHT22;5783;55.174;61.310;2022-09-02T19:51:26;27.30;47.20
11454;DHT22;5783;55.174;61.310;2022-09-02T19:53:54;27.30;47.10
11454;DHT22;5783;55.174;61.310;2022-09-02T19:56:24;27.30;47.10
11454;DHT22;5783;55.174;61.310;2022-09-02T19:58:52;27.30;47.20
11454;DHT22;5783;55.174;61.310;2022-09-02T20:01:20;27.30;47.20
11454;DHT22;5783;55.174;61.310;2022-09-02T20:03:50;27.30;47.20
11454;DHT22;5783;55.174;61.310;2022-09-02T20:06:18;27.30;47.20
11454;DHT22;5783;55.174;61.310;2022-09-02T20:08:47;27.30;47.20
11454;DHT22;5783;55.174;61.310;2022-09-02T20:11:16;27.20;47.20
11454;DHT22;5783;55.174;61.310;2022-09-02T20:13:44;27.20;47.20
11454;DHT22;5783;55.174;61.310;2022-09-02T20:16:44;27.20;47.20
11454;DHT22;5783;55.174;61.310;2022-09-02T20:18:45;27.20;47.30
11454;DHT22;5783;55.174;61.310;2022-09-02T20:24:02;27.20;47.60
11454;DHT22;5783;55.174;61.310;2022-09-02T20:26:34;27.20;47.70
11454;DHT22;5783;55.174;61.310;2022-09-02T20:32:30;27.20;47.80
11454;DHT22;5783;55.174;61.310;2022-09-02T20:37:46;27.20;48.00
11454;DHT22;5783;55.174;61.310;2022-09-02T20:53:10;27.00;48.50
11454;DHT22;5783;55.174;61.310;2022-09-02T21:04:02;27.00;49.00
11454;DHT22;5783;55.174;61.310;2022-09-02T21:07:01;27.00;49.00
11454;DHT22;5783;55.174;61.310;2022-09-02T21:17:07;27.00;49.10
11454;DHT22;5783;55.174;61.310;2022-09-02T21:25:46;27.00;49.30
11454;DHT22;5783;55.174;61.310;2022-09-02T21:30:32;27.00;48.90
11454;DHT22;5783;55.174;61.310;2022-09-02T21:33:01;27.00;49.00
11454;DHT22;5783;55.174;61.310;2022-09-02T21:38:00;26.90;49.00
11454;DHT22;5783;55.174;61.310;2022-09-02T21:48:55;26.90;49.10
11454;DHT22;5783;55.174;61.310;2022-09-02T22:05:37;26.80;50.10
11454;DHT22;5783;55.174;61.310;2022-09-02T22:13:10;26.80;50.50
11454;DHT22;5783;55.174;61.310;2022-09-02T22:24:25;26.70;51.40
11454;DHT22;5783;55.174;61.310;2022-09-02T22:26:56;26.60;51.70
11454;DHT22;5783;55.174;61.310;2022-09-02T22:32:13;26.60;51.90
11454;DHT22;5783;55.174;61.310;2022-09-02T22:37:36;26.60;51.90
11454;DHT22;5783;55.174;61.310;2022-09-02T22:40:04;26.60;52.00
11454;DHT22;5783;55.174;61.310;2022-09-02T22:43:09;26.60;52.20